createdAt,value
2019-05-13T00:01:20.902Z,90.40
2019-05-13T00:03:54.087Z,90.30
2019-05-13T00:06:24.307Z,90.50
2019-05-13T00:08:55.621Z,90.50
2019-05-13T00:11:26.756Z,90.60
2019-05-13T00:13:57.848Z,90.20
2019-05-13T00:16:28.563Z,90.10
2019-05-13T00:18:59.762Z,90.00
2019-05-13T00:21:30.982Z,90.00
2019-05-13T00:24:04.099Z,89.60
2019-05-13T00:26:35.214Z,88.70
2019-05-13T00:29:06.202Z,89.10
2019-05-13T00:31:37.280Z,88.90
2019-05-13T00:34:08.173Z,88.80
2019-05-13T00:36:38.935Z,88.90
2019-05-13T00:39:10.520Z,88.10
2019-05-13T00:41:41.202Z,88.00
2019-05-13T00:44:14.118Z,87.60
2019-05-13T00:46:44.601Z,86.60
2019-05-13T00:49:15.405Z,86.20
2019-05-13T00:51:46.217Z,86.30
2019-05-13T00:54:17.061Z,86.30
2019-05-13T00:56:47.727Z,85.90
2019-05-13T00:59:18.638Z,86.30
2019-05-13T01:01:49.516Z,85.50
2019-05-13T01:04:20.297Z,84.90
2019-05-13T01:06:53.596Z,84.60
2019-05-13T01:09:23.816Z,84.40
2019-05-13T01:11:54.779Z,82.90
2019-05-13T01:14:25.834Z,82.90
2019-05-13T01:16:56.810Z,81.60
2019-05-13T01:19:27.782Z,80.90
2019-05-13T01:21:58.587Z,81.20
2019-05-13T01:24:30.168Z,81.00
2019-05-13T01:27:03.546Z,80.30
2019-05-13T01:29:34.362Z,80.60
2019-05-13T01:32:05.253Z,80.70
2019-05-13T01:34:36.223Z,80.80
2019-05-13T01:37:07.147Z,81.30
2019-05-13T01:39:38.083Z,81.50
2019-05-13T01:42:08.875Z,79.90
2019-05-13T01:44:43.639Z,79.70
2019-05-13T01:47:13.571Z,77.90
2019-05-13T01:49:46.640Z,78.70
2019-05-13T01:52:20.722Z,76.80
2019-05-13T01:54:54.374Z,77.50
2019-05-13T01:57:25.351Z,77.40
2019-05-13T01:59:56.144Z,76.90
2019-05-13T02:02:27.045Z,76.70
2019-05-13T02:05:03.776Z,77.10
2019-05-13T02:07:34.291Z,75.20
2019-05-13T02:10:07.946Z,74.90
2019-05-13T02:12:39.017Z,74.90
2019-05-13T02:15:10.183Z,74.50
2019-05-13T02:17:41.164Z,73.50
2019-05-13T02:20:14.714Z,73.80
2019-05-13T02:22:44.750Z,73.10
2019-05-13T02:25:15.630Z,74.10
2019-05-13T02:27:46.703Z,73.40
2019-05-13T02:30:18.367Z,74.90
2019-05-13T02:32:52.919Z,74.20
2019-05-13T02:35:23.123Z,73.50
2019-05-13T02:38:12.421Z,74.30
2019-05-13T02:40:26.315Z,72.60
2019-05-13T02:42:57.322Z,71.60
2019-05-13T02:45:28.374Z,71.30
2019-05-13T02:47:59.203Z,71.10
2019-05-13T02:50:33.519Z,71.50
2019-05-13T02:53:02.556Z,72.30
2019-05-13T02:55:33.441Z,71.20
2019-05-13T02:58:04.099Z,69.80
2019-05-13T03:00:35.011Z,68.20
2019-05-13T03:03:06.051Z,69.00
2019-05-13T03:05:36.816Z,69.10
2019-05-13T03:08:07.611Z,68.10
2019-05-13T03:10:38.626Z,67.90
2019-05-13T03:13:12.623Z,67.40
2019-05-13T03:15:43.921Z,68.30
2019-05-13T03:18:14.920Z,68.30
2019-05-13T03:20:45.591Z,65.20
2019-05-13T03:23:16.474Z,64.30
2019-05-13T03:25:47.370Z,65.10
2019-05-13T03:28:18.354Z,65.60
2019-05-13T03:30:49.036Z,65.60
2019-05-13T03:33:26.186Z,63.30
2019-05-13T03:35:55.847Z,63.00
2019-05-13T03:38:25.370Z,63.40
2019-05-13T03:40:56.570Z,63.40
2019-05-13T03:43:27.464Z,62.80
2019-05-13T03:45:58.387Z,62.90
2019-05-13T03:48:29.346Z,63.70
2019-05-13T03:51:02.774Z,61.90
2019-05-13T03:53:32.790Z,61.40
2019-05-13T03:56:04.208Z,61.40
2019-05-13T03:58:35.409Z,63.20
2019-05-13T04:01:06.438Z,62.40
2019-05-13T04:03:38.660Z,60.00
2019-05-13T04:06:13.128Z,61.00
2019-05-13T04:08:43.381Z,61.50
2019-05-13T04:11:14.196Z,60.50
2019-05-13T04:13:44.976Z,62.00
2019-05-13T04:16:15.663Z,61.10
2019-05-13T04:18:46.303Z,60.40
2019-05-13T04:21:17.097Z,58.90
2019-05-13T04:23:47.966Z,60.00
2019-05-13T04:26:18.907Z,59.80
2019-05-13T04:28:52.434Z,60.00
2019-05-13T04:31:22.772Z,60.30
2019-05-13T04:33:53.987Z,58.10
2019-05-13T04:36:24.998Z,58.90
2019-05-13T04:38:55.650Z,59.40
2019-05-13T04:41:26.465Z,60.20
2019-05-13T04:43:57.471Z,60.80
2019-05-13T04:46:28.548Z,61.20
2019-05-13T04:49:02.002Z,60.70
2019-05-13T04:51:32.926Z,60.30
2019-05-13T04:54:03.696Z,59.50
2019-05-13T04:56:34.667Z,61.40
2019-05-13T04:59:05.619Z,61.20
2019-05-13T05:01:40.170Z,59.50
2019-05-13T05:04:22.345Z,55.60
2019-05-13T05:06:48.158Z,57.70
2019-05-13T05:09:22.550Z,56.60
2019-05-13T05:11:56.458Z,56.50
2019-05-13T05:14:27.627Z,56.50
2019-05-13T05:17:03.197Z,55.90
2019-05-13T05:19:35.966Z,56.80
2019-05-13T05:22:09.264Z,57.70
2019-05-13T05:24:42.746Z,58.60
2019-05-13T05:27:16.250Z,58.70
2019-05-13T05:29:51.513Z,57.80
2019-05-13T05:32:24.217Z,57.70
2019-05-13T05:34:57.673Z,56.50
2019-05-13T05:37:31.248Z,57.40
2019-05-13T05:40:01.890Z,57.20
2019-05-13T05:42:32.794Z,56.10
2019-05-13T05:45:03.668Z,55.90
2019-05-13T05:47:34.540Z,54.40
2019-05-13T05:50:05.208Z,55.00
2019-05-13T05:52:36.087Z,55.20
2019-05-13T05:55:08.288Z,55.80
2019-05-13T05:57:41.966Z,54.80
2019-05-13T06:00:13.029Z,54.20
2019-05-13T06:02:45.675Z,56.60
2019-05-13T06:05:16.512Z,57.40
2019-05-13T06:07:47.420Z,57.60
2019-05-13T06:10:18.103Z,57.90
2019-05-13T06:12:52.817Z,58.80
2019-05-13T06:15:23.720Z,59.70
2019-05-13T06:17:54.586Z,59.70
2019-05-13T06:20:25.500Z,59.20
2019-05-13T06:22:56.360Z,60.40
2019-05-13T06:25:27.265Z,59.60
2019-05-13T06:27:58.022Z,60.50
2019-05-13T06:30:28.990Z,61.50
2019-05-13T06:33:01.593Z,60.00
2019-05-13T06:35:32.500Z,61.50
2019-05-13T06:38:03.414Z,63.80
2019-05-13T06:40:34.398Z,66.50
2019-05-13T06:43:05.208Z,67.40
2019-05-13T06:45:36.028Z,67.30
2019-05-13T06:48:06.696Z,67.80
2019-05-13T06:50:37.708Z,66.00
2019-05-13T06:53:08.699Z,65.40
2019-05-13T06:55:41.635Z,64.00
2019-05-13T06:58:11.905Z,63.90
2019-05-13T07:00:42.911Z,63.70
2019-05-13T07:03:13.895Z,62.30
2019-05-13T07:05:44.976Z,62.10
2019-05-13T07:08:15.798Z,61.50
2019-05-13T07:10:46.511Z,61.30
2019-05-13T07:13:17.258Z,61.00
2019-05-13T07:15:47.974Z,62.10
2019-05-13T07:18:18.649Z,62.00
2019-05-13T07:20:49.303Z,61.30
2019-05-13T07:23:22.257Z,60.40
2019-05-13T07:25:52.643Z,62.00
2019-05-13T07:28:23.828Z,63.80
2019-05-13T07:30:54.719Z,64.20
2019-05-13T07:33:25.605Z,64.40
2019-05-13T07:35:58.494Z,64.90
2019-05-13T07:38:28.917Z,65.10
2019-05-13T07:41:02.217Z,65.80
2019-05-13T07:43:33.169Z,65.60
2019-05-13T07:46:03.978Z,65.60
2019-05-13T07:48:34.878Z,65.80
2019-05-13T07:51:05.756Z,67.00
2019-05-13T07:53:36.731Z,66.80
2019-05-13T07:56:07.498Z,67.00
2019-05-13T07:58:38.506Z,67.30
2019-05-13T08:01:11.988Z,66.60
2019-05-13T08:03:42.273Z,66.50
2019-05-13T08:06:13.448Z,66.30
2019-05-13T08:08:44.458Z,66.40
2019-05-13T08:11:15.316Z,66.10
2019-05-13T08:13:46.338Z,65.50
2019-05-13T08:16:18.021Z,66.10
2019-05-13T08:18:52.154Z,66.20
2019-05-13T08:21:22.465Z,66.30
2019-05-13T08:23:53.334Z,66.80
2019-05-13T08:26:24.133Z,67.80
2019-05-13T08:29:01.596Z,66.40
2019-05-13T08:31:27.174Z,66.40
2019-05-13T08:33:58.277Z,66.20
2019-05-13T08:36:29.236Z,66.00
2019-05-13T08:39:02.395Z,65.50
2019-05-13T08:41:32.420Z,65.30
2019-05-13T08:44:03.277Z,65.10
2019-05-13T08:46:35.021Z,65.10
2019-05-13T08:49:05.939Z,65.00
2019-05-13T08:51:36.729Z,64.40
2019-05-13T08:54:07.551Z,64.20
2019-05-13T08:56:41.807Z,64.10
2019-05-13T08:59:12.852Z,64.20
2019-05-13T09:01:43.589Z,63.40
2019-05-13T09:04:15.688Z,63.60
2019-05-13T09:06:46.690Z,62.80
2019-05-13T09:09:17.689Z,62.40
2019-05-13T09:11:48.671Z,62.50
2019-05-13T09:14:21.749Z,62.60
2019-05-13T09:16:52.579Z,62.50
2019-05-13T09:19:23.539Z,61.30
2019-05-13T09:21:54.306Z,62.50
2019-05-13T09:24:32.988Z,62.90
2019-05-13T09:26:57.317Z,61.50
2019-05-13T09:29:28.086Z,62.00
2019-05-13T09:32:03.370Z,62.80
2019-05-13T09:34:32.965Z,63.20
2019-05-13T09:37:03.988Z,63.20
2019-05-13T09:39:34.771Z,63.20
2019-05-13T09:42:06.915Z,62.30
2019-05-13T09:44:37.703Z,61.30
2019-05-13T09:47:08.564Z,62.60
2019-05-13T09:49:41.850Z,61.60
2019-05-13T09:52:12.068Z,62.50
2019-05-13T09:54:42.999Z,63.30
2019-05-13T09:57:13.899Z,65.40
2019-05-13T09:59:47.672Z,67.60
2019-05-13T10:02:17.524Z,68.00
2019-05-13T10:04:48.375Z,67.60
2019-05-13T10:07:19.032Z,70.60
2019-05-13T10:09:51.794Z,69.90
2019-05-13T10:12:24.991Z,71.00
2019-05-13T10:14:54.723Z,70.90
2019-05-13T10:17:25.501Z,69.90
2019-05-13T10:19:56.250Z,72.20
2019-05-13T10:22:27.402Z,73.20
2019-05-13T10:24:58.422Z,73.80
2019-05-13T10:27:29.105Z,72.30
2019-05-13T10:30:06.745Z,71.60
2019-05-13T10:32:37.882Z,71.60
2019-05-13T10:35:09.115Z,71.80
2019-05-13T10:37:41.801Z,72.50
2019-05-13T10:40:12.287Z,71.30
2019-05-13T10:42:43.406Z,72.00
2019-05-13T10:45:14.362Z,71.50
2019-05-13T10:47:45.220Z,70.40
2019-05-13T10:50:15.982Z,70.10
2019-05-13T10:52:46.744Z,70.60
2019-05-13T10:55:21.444Z,70.90
2019-05-13T10:57:51.352Z,71.40
2019-05-13T11:00:24.696Z,71.40
2019-05-13T11:02:55.788Z,71.00
2019-05-13T11:05:26.473Z,71.50
2019-05-13T11:07:57.800Z,71.00
2019-05-13T11:10:32.557Z,71.40
2019-05-13T11:13:06.171Z,71.30
2019-05-13T11:15:40.831Z,71.10
2019-05-13T11:18:14.181Z,71.50
2019-05-13T11:20:41.935Z,71.90
2019-05-13T11:23:13.018Z,71.70
2019-05-13T11:25:44.205Z,70.90
2019-05-13T11:28:14.946Z,72.20
2019-05-13T11:30:45.837Z,72.00
2019-05-13T11:33:17.017Z,72.60
2019-05-13T11:35:48.020Z,72.70
2019-05-13T11:38:21.339Z,72.70
2019-05-13T11:40:52.468Z,72.10
2019-05-13T11:43:27.874Z,72.50
2019-05-13T11:45:55.547Z,72.20
2019-05-13T11:48:26.603Z,72.30
2019-05-13T11:50:57.326Z,72.50
2019-05-13T11:53:32.638Z,73.20
2019-05-13T11:56:03.649Z,73.50
2019-05-13T11:58:33.487Z,74.10
2019-05-13T12:01:05.533Z,74.90
2019-05-13T12:03:36.301Z,75.30
2019-05-13T12:06:07.292Z,75.40
2019-05-13T12:08:38.110Z,75.50
2019-05-13T12:11:08.985Z,75.10
2019-05-13T12:13:44.693Z,74.60
2019-05-13T12:16:16.187Z,75.30
2019-05-13T12:18:47.123Z,76.90
2019-05-13T12:21:18.059Z,76.90
2019-05-13T12:23:52.453Z,76.90
2019-05-13T12:26:23.780Z,77.00
2019-05-13T12:28:54.371Z,76.90
2019-05-13T12:31:25.389Z,77.50
2019-05-13T12:33:56.160Z,77.40
2019-05-13T12:36:27.060Z,76.10
2019-05-13T12:38:57.736Z,76.70
2019-05-13T12:41:28.518Z,75.90
2019-05-13T12:44:01.605Z,75.90
2019-05-13T12:46:31.263Z,75.80
2019-05-13T12:49:03.870Z,75.90
2019-05-13T12:51:34.251Z,76.00
2019-05-13T12:54:05.214Z,75.60
2019-05-13T12:56:36.426Z,75.70
2019-05-13T12:59:07.320Z,76.00
2019-05-13T13:01:38.130Z,76.40
2019-05-13T13:04:09.149Z,76.10
2019-05-13T13:06:44.665Z,76.40
2019-05-13T13:09:13.004Z,76.00
2019-05-13T13:11:44.163Z,76.10
2019-05-13T13:14:17.033Z,75.90
2019-05-13T13:16:48.337Z,75.60
2019-05-13T13:19:21.860Z,76.00
2019-05-13T13:21:53.507Z,75.90
2019-05-13T13:26:55.668Z,75.50
2019-05-13T13:29:26.538Z,75.30
2019-05-13T13:31:57.702Z,75.90
2019-05-13T13:34:28.383Z,75.40
2019-05-13T13:36:59.159Z,75.50
2019-05-13T13:39:31.927Z,75.50
2019-05-13T13:42:05.410Z,76.10
2019-05-13T13:44:35.166Z,75.80
2019-05-13T13:47:14.259Z,76.10
2019-05-13T13:49:43.587Z,77.50
2019-05-13T13:52:16.022Z,77.20
2019-05-13T13:54:45.796Z,77.00
2019-05-13T13:57:17.121Z,77.20
2019-05-13T14:00:19.170Z,77.60
2019-05-13T14:02:23.966Z,77.70
2019-05-13T14:04:54.153Z,78.00
2019-05-13T14:06:55.935Z,76.30
2019-05-13T14:07:35.104Z,77.90
2019-05-13T14:09:56.401Z,78.70
2019-05-13T14:12:27.273Z,79.40
2019-05-13T14:14:58.711Z,79.30
2019-05-13T14:17:31.264Z,81.00
2019-05-13T14:20:01.841Z,81.40
2019-05-13T14:22:32.711Z,81.60
2019-05-13T14:25:03.610Z,81.50
2019-05-13T14:27:34.586Z,81.70
2019-05-13T14:30:07.676Z,80.80
2019-05-13T14:32:38.707Z,82.60
2019-05-13T14:35:12.006Z,83.30
2019-05-13T14:37:42.047Z,83.90
2019-05-13T14:40:13.037Z,85.60
2019-05-13T14:42:43.806Z,87.00
2019-05-13T14:45:14.826Z,87.40
2019-05-13T14:47:45.949Z,87.30
2019-05-13T14:50:18.060Z,88.50
2019-05-13T14:52:48.866Z,87.60
2019-05-13T14:55:21.470Z,86.80
2019-05-13T14:57:52.533Z,84.50
2019-05-13T15:00:23.716Z,85.40
2019-05-13T15:02:54.610Z,84.20
2019-05-13T15:05:25.590Z,86.00
2019-05-13T15:07:56.570Z,85.50
2019-05-13T15:10:27.356Z,85.50
2019-05-13T15:12:58.466Z,84.60
2019-05-13T15:15:31.504Z,84.20
2019-05-13T15:18:01.653Z,83.90
2019-05-13T15:20:33.148Z,83.60
2019-05-13T15:23:04.196Z,83.70
2019-05-13T15:25:35.239Z,83.30
2019-05-13T15:28:06.298Z,84.20
2019-05-13T15:30:37.015Z,84.40
2019-05-13T15:33:07.811Z,86.00
2019-05-13T15:35:38.509Z,85.60
2019-05-13T15:38:09.281Z,85.10
2019-05-13T15:40:41.504Z,84.50
2019-05-13T15:43:12.584Z,86.80
2019-05-13T15:45:45.276Z,89.00
2019-05-13T15:48:15.792Z,88.10
2019-05-13T15:50:46.833Z,87.10
2019-05-13T15:53:17.690Z,86.20
2019-05-13T15:55:51.782Z,86.80
2019-05-13T15:58:38.037Z,86.30
2019-05-13T16:00:55.573Z,85.60
2019-05-13T16:03:26.864Z,86.40
2019-05-13T16:06:01.848Z,87.90
2019-05-13T16:08:33.014Z,87.60
2019-05-13T16:11:04.483Z,87.10
2019-05-13T16:13:35.625Z,87.20
2019-05-13T16:16:06.633Z,88.00
2019-05-13T16:18:37.497Z,87.10
2019-05-13T16:21:08.375Z,87.70
2019-05-13T16:23:39.073Z,88.20
2019-05-13T16:26:09.877Z,88.30
2019-05-13T16:28:42.072Z,87.90
2019-05-13T16:31:12.811Z,88.90
2019-05-13T16:33:43.517Z,89.40
2019-05-13T16:36:14.301Z,88.80
2019-05-13T16:38:45.259Z,86.90
2019-05-13T16:41:16.380Z,87.70
2019-05-13T16:43:47.266Z,88.70
2019-05-13T16:46:18.015Z,89.80
2019-05-13T16:48:48.812Z,88.80
2019-05-13T16:51:21.584Z,90.00
2019-05-13T16:53:52.294Z,90.50
2019-05-13T16:56:29.517Z,90.70
2019-05-13T16:58:55.761Z,91.10
2019-05-13T17:01:26.735Z,90.90
2019-05-13T17:03:57.701Z,90.90
2019-05-13T17:06:28.726Z,90.90
2019-05-13T17:09:01.807Z,90.90
2019-05-13T17:11:32.147Z,90.60
2019-05-13T17:14:05.605Z,91.40
2019-05-13T17:16:35.600Z,91.30
2019-05-13T17:19:06.584Z,91.30
2019-05-13T17:21:37.684Z,91.40
2019-05-13T17:24:08.560Z,90.90
2019-05-13T17:26:41.602Z,91.20
2019-05-13T17:29:12.137Z,91.10
2019-05-13T17:31:43.324Z,91.00
2019-05-13T17:34:13.975Z,90.70
2019-05-13T17:36:44.641Z,90.30
2019-05-13T17:39:15.538Z,90.90
2019-05-13T17:41:46.460Z,91.60
2019-05-13T17:44:17.302Z,91.90
2019-05-13T17:46:47.978Z,92.10
2019-05-13T17:49:18.840Z,91.80
2019-05-13T17:51:51.523Z,91.70
2019-05-13T17:54:22.149Z,91.90
2019-05-13T17:56:53.325Z,92.10
2019-05-13T17:59:24.211Z,92.10
2019-05-13T18:01:55.105Z,91.90
2019-05-13T18:04:26.044Z,92.00
2019-05-13T18:06:58.715Z,92.20
2019-05-13T18:09:31.539Z,92.20
2019-05-13T18:12:02.422Z,92.10
2019-05-13T18:14:33.487Z,92.10
2019-05-13T18:17:04.458Z,92.30
2019-05-13T18:19:35.346Z,92.30
2019-05-13T18:22:06.180Z,92.10
2019-05-13T18:24:37.025Z,92.10
2019-05-13T18:27:07.974Z,92.10
2019-05-13T18:29:38.762Z,92.10
2019-05-13T18:32:12.151Z,92.00
2019-05-13T18:34:41.662Z,92.10
2019-05-13T18:37:12.546Z,92.20
2019-05-13T18:39:43.549Z,92.20
2019-05-13T18:42:14.416Z,92.20
2019-05-13T18:44:45.305Z,92.30
2019-05-13T18:47:15.996Z,92.30
2019-05-13T18:49:46.763Z,92.30
2019-05-13T18:52:18.019Z,92.30
2019-05-13T18:54:48.702Z,92.20
2019-05-13T18:57:21.187Z,92.10
2019-05-13T18:59:52.021Z,92.20
2019-05-13T19:02:22.891Z,92.20
2019-05-13T19:04:53.586Z,92.20
2019-05-13T19:07:24.306Z,92.10
2019-05-13T19:09:55.311Z,92.30
2019-05-13T19:12:25.956Z,92.40
2019-05-13T19:14:56.741Z,92.50
2019-05-13T19:17:27.415Z,92.40
2019-05-13T19:19:58.075Z,92.40
2019-05-13T19:22:28.788Z,92.40
2019-05-13T19:25:01.123Z,92.60
2019-05-13T19:27:32.052Z,92.50
2019-05-13T19:30:03.008Z,92.10
2019-05-13T19:32:34.016Z,92.10
2019-05-13T19:35:05.128Z,92.00
2019-05-13T19:37:35.778Z,92.30
2019-05-13T19:40:07.972Z,92.40
2019-05-13T19:42:38.660Z,92.40
2019-05-13T19:45:09.366Z,92.20
2019-05-13T19:47:41.801Z,92.10
2019-05-13T19:50:12.535Z,92.40
2019-05-13T19:52:43.388Z,92.50
2019-05-13T19:55:14.097Z,92.80
2019-05-13T19:57:44.935Z,92.40
2019-05-13T20:00:16.243Z,92.90
2019-05-13T20:02:47.103Z,92.90
2019-05-13T20:05:20.389Z,93.00
2019-05-13T20:07:52.180Z,93.00
2019-05-13T20:10:22.297Z,93.00
2019-05-13T20:12:53.349Z,93.00
2019-05-13T20:15:24.397Z,92.90
2019-05-13T20:17:55.290Z,92.80
2019-05-13T20:20:26.065Z,92.70
2019-05-13T20:22:57.085Z,92.40
2019-05-13T20:25:28.388Z,92.60
2019-05-13T20:27:59.331Z,92.90
2019-05-13T20:30:30.347Z,92.90
2019-05-13T20:33:02.385Z,92.90
2019-05-13T20:35:33.335Z,93.00
2019-05-13T20:38:04.253Z,93.00
2019-05-13T20:40:34.928Z,93.00
2019-05-13T20:43:05.616Z,92.90
2019-05-13T20:45:36.730Z,93.10
2019-05-13T20:48:07.543Z,93.30
2019-05-13T20:50:38.433Z,93.30
2019-05-13T20:53:11.362Z,92.90
2019-05-13T20:55:41.693Z,92.60
2019-05-13T20:58:12.882Z,92.60
2019-05-13T21:00:43.647Z,92.30
2019-05-13T21:03:14.342Z,92.30
2019-05-13T21:05:44.995Z,92.30
2019-05-13T21:08:15.674Z,92.20
2019-05-13T21:10:46.399Z,92.20
2019-05-13T21:13:17.029Z,92.10
2019-05-13T21:15:47.688Z,92.40
2019-05-13T21:18:18.374Z,92.70
2019-05-13T21:20:49.011Z,92.40
2019-05-13T21:23:21.603Z,92.40
2019-05-13T21:25:51.723Z,92.50
2019-05-13T21:28:22.681Z,92.40
2019-05-13T21:30:53.322Z,92.40
2019-05-13T21:33:24.046Z,92.30
2019-05-13T21:35:54.716Z,92.20
2019-05-13T21:38:25.413Z,92.30
2019-05-13T21:40:56.442Z,92.20
2019-05-13T21:43:27.272Z,92.20
2019-05-13T21:45:58.123Z,92.40
2019-05-13T21:48:29.003Z,92.50
2019-05-13T21:50:59.965Z,92.90
2019-05-13T21:53:32.613Z,93.10
2019-05-13T21:56:03.342Z,93.30
2019-05-13T21:58:34.384Z,93.20
2019-05-13T22:01:05.086Z,93.20
2019-05-13T22:03:35.869Z,93.30
2019-05-13T22:06:06.722Z,93.10
2019-05-13T22:08:37.489Z,93.00
2019-05-13T22:11:08.481Z,93.00
2019-05-13T22:13:39.198Z,93.00
2019-05-13T22:16:10.057Z,92.70
2019-05-13T22:18:41.756Z,93.10
2019-05-13T22:21:12.912Z,93.40
2019-05-13T22:23:43.843Z,93.50
2019-05-13T22:26:14.726Z,93.70
2019-05-13T22:28:45.726Z,93.90
2019-05-13T22:31:16.567Z,93.90
2019-05-13T22:33:47.449Z,94.00
2019-05-13T22:36:18.450Z,94.10
2019-05-13T22:38:51.478Z,94.10
2019-05-13T22:41:22.249Z,94.10
2019-05-13T22:43:58.458Z,94.10
2019-05-13T22:46:25.353Z,94.00
2019-05-13T22:48:56.047Z,94.00
2019-05-13T22:51:26.708Z,93.60
2019-05-13T22:53:57.384Z,93.60
2019-05-13T22:56:28.050Z,93.80
2019-05-13T22:58:58.718Z,94.00
2019-05-13T23:01:29.417Z,94.00
2019-05-13T23:04:02.069Z,94.00
2019-05-13T23:06:32.309Z,94.10
2019-05-13T23:09:02.987Z,94.30
2019-05-13T23:11:33.641Z,94.20
2019-05-13T23:14:09.674Z,94.20
2019-05-13T23:16:36.418Z,94.30
2019-05-13T23:19:07.083Z,94.30
2019-05-13T23:21:37.761Z,94.40
2019-05-13T23:24:08.733Z,94.50
2019-05-13T23:26:39.437Z,94.60
2019-05-13T23:29:10.328Z,94.80
2019-05-13T23:31:41.601Z,95.00
2019-05-13T23:34:12.467Z,95.20
2019-05-13T23:36:43.355Z,95.30
2019-05-13T23:39:14.363Z,95.70
2019-05-13T23:41:45.072Z,95.70
2019-05-13T23:44:24.924Z,95.70
2019-05-13T23:46:48.048Z,95.90
2019-05-13T23:49:20.926Z,95.90
2019-05-13T23:51:52.071Z,95.90
2019-05-13T23:54:23.266Z,96.10
2019-05-13T23:56:54.068Z,96.30
2019-05-13T23:59:24.982Z,96.70
